createdAt,value
2018-03-02T00:00:07.811Z,16.77
2018-03-02T00:05:54.583Z,15.00
2018-03-02T00:08:21.227Z,16.00
2018-03-02T00:11:00.899Z,16.15
2018-03-02T00:13:58.329Z,16.92
2018-03-02T00:16:25.076Z,16.58
2018-03-02T00:18:51.629Z,16.15
2018-03-02T00:21:18.284Z,16.40
2018-03-02T00:23:44.942Z,18.08
2018-03-02T00:26:12.443Z,17.35
2018-03-02T00:28:39.138Z,16.67
2018-03-02T00:31:05.819Z,17.12
2018-03-02T00:33:32.485Z,16.65
2018-03-02T00:35:59.998Z,15.73
2018-03-02T00:38:26.660Z,16.35
2018-03-02T00:40:53.249Z,15.68
2018-03-02T00:43:19.848Z,17.35
2018-03-02T00:45:46.616Z,18.33
2018-03-02T00:51:28.921Z,17.50
2018-03-02T00:53:55.623Z,19.02
2018-03-02T00:56:22.279Z,18.17
2018-03-02T00:58:48.889Z,17.48
2018-03-02T01:04:11.026Z,16.98
2018-03-02T01:06:38.345Z,19.58
2018-03-02T01:09:05.057Z,18.48
2018-03-02T01:11:31.659Z,18.92
2018-03-02T01:13:58.282Z,18.35
2018-03-02T01:16:24.950Z,17.40
2018-03-02T01:19:12.621Z,16.83
2018-03-02T01:21:39.366Z,18.12
2018-03-02T01:24:05.923Z,17.55
2018-03-02T01:26:32.495Z,18.83
2018-03-02T01:29:11.984Z,19.52
2018-03-02T01:31:38.745Z,17.60
2018-03-02T01:34:05.447Z,14.43
2018-03-02T01:36:40.815Z,21.12
2018-03-02T01:39:08.300Z,18.77
2018-03-02T01:41:35.024Z,17.20
2018-03-02T01:44:01.613Z,20.12
2018-03-02T01:46:28.294Z,15.38
2018-03-02T01:49:11.241Z,20.25
2018-03-02T01:51:48.940Z,20.95
2018-03-02T01:56:53.279Z,20.45
2018-03-02T01:59:19.960Z,19.23
2018-03-02T02:01:47.350Z,19.62
2018-03-02T02:04:14.100Z,19.35
2018-03-02T02:06:41.507Z,22.77
2018-03-02T02:09:08.206Z,19.50
2018-03-02T02:11:34.801Z,21.30
2018-03-02T02:14:03.544Z,20.90
2018-03-02T02:16:30.263Z,20.52
2018-03-02T02:18:56.901Z,21.67
2018-03-02T02:21:23.521Z,19.05
2018-03-02T02:23:52.101Z,19.62
2018-03-02T02:26:18.720Z,21.00
2018-03-02T02:28:47.198Z,19.52
2018-03-02T02:31:13.846Z,21.70
2018-03-02T02:33:41.431Z,20.85
2018-03-02T02:36:08.095Z,20.67
2018-03-02T02:38:34.854Z,20.52
2018-03-02T02:41:02.110Z,18.83
2018-03-02T02:43:32.380Z,20.95
2018-03-02T02:46:03.466Z,21.20
2018-03-02T02:48:30.196Z,22.87
2018-03-02T02:50:56.842Z,19.85
2018-03-02T02:53:27.006Z,21.60
2018-03-02T02:55:53.715Z,20.70
2018-03-02T02:58:20.366Z,20.60
2018-03-02T03:00:51.113Z,23.30
2018-03-02T03:03:20.183Z,21.17
2018-03-02T03:05:48.330Z,20.98
2018-03-02T03:08:15.038Z,19.55
2018-03-02T03:10:41.655Z,19.55
2018-03-02T03:13:08.253Z,20.17
2018-03-02T03:15:34.882Z,22.85
2018-03-02T03:18:01.519Z,17.70
2018-03-02T03:20:28.245Z,23.38
2018-03-02T03:22:54.868Z,21.80
2018-03-02T03:25:21.531Z,21.20
2018-03-02T03:27:48.944Z,20.17
2018-03-02T03:30:15.520Z,22.33
2018-03-02T03:32:42.196Z,22.02
2018-03-02T03:35:11.210Z,22.90
2018-03-02T03:37:38.581Z,21.70
2018-03-02T03:40:05.204Z,21.65
2018-03-02T03:42:35.177Z,21.73
2018-03-02T03:45:01.871Z,22.60
2018-03-02T03:47:28.502Z,22.95
2018-03-02T03:49:55.159Z,20.95
2018-03-02T03:52:21.792Z,20.20
2018-03-02T03:54:48.381Z,23.87
2018-03-02T03:57:23.500Z,23.12
2018-03-02T03:59:50.251Z,22.27
2018-03-02T04:02:17.609Z,23.30
2018-03-02T04:04:44.203Z,24.83
2018-03-02T04:07:10.876Z,25.67
2018-03-02T04:09:38.212Z,25.80
2018-03-02T04:12:04.817Z,24.20
2018-03-02T04:14:31.536Z,22.98
2018-03-02T04:17:05.967Z,23.83
2018-03-02T04:19:32.717Z,23.83
2018-03-02T04:21:59.448Z,21.70
2018-03-02T04:24:26.182Z,24.23
2018-03-02T04:26:52.837Z,24.35
2018-03-02T04:29:33.774Z,23.48
2018-03-02T04:32:01.059Z,25.60
2018-03-02T04:34:27.684Z,24.27
2018-03-02T04:36:55.119Z,25.40
2018-03-02T04:42:11.948Z,25.67
2018-03-02T04:44:38.554Z,24.55
2018-03-02T04:47:05.264Z,24.50
2018-03-02T04:49:31.821Z,25.52
2018-03-02T04:51:58.396Z,22.35
2018-03-02T04:54:45.953Z,24.02
2018-03-02T04:57:13.325Z,21.80
2018-03-02T04:59:41.867Z,25.40
2018-03-02T05:02:08.444Z,23.98
2018-03-02T05:04:35.162Z,26.25
2018-03-02T05:10:12.529Z,25.15
2018-03-02T05:12:39.904Z,25.40
2018-03-02T05:15:06.477Z,25.92
2018-03-02T05:17:33.110Z,25.05
2018-03-02T05:23:27.794Z,27.58
2018-03-02T05:28:54.459Z,26.35
2018-03-02T05:31:45.622Z,20.37
2018-03-02T05:34:31.179Z,25.65
2018-03-02T05:40:22.209Z,25.42
2018-03-02T05:42:48.839Z,25.17
2018-03-02T05:45:15.482Z,26.98
2018-03-02T05:47:42.446Z,26.37
2018-03-02T05:53:11.446Z,23.83
2018-03-02T05:55:49.033Z,24.27
2018-03-02T05:58:16.396Z,26.05
2018-03-02T06:00:43.152Z,25.55
2018-03-02T06:03:18.286Z,27.08
2018-03-02T06:05:44.910Z,23.60
2018-03-02T06:08:11.510Z,25.15
2018-03-02T06:10:38.154Z,27.90
2018-03-02T06:13:04.728Z,27.45
2018-03-02T06:15:31.358Z,26.17
2018-03-02T06:17:58.047Z,25.45
2018-03-02T06:20:52.517Z,22.08
2018-03-02T06:23:19.952Z,26.67
2018-03-02T06:25:46.541Z,28.17
2018-03-02T06:28:20.149Z,26.45
2018-03-02T06:30:48.962Z,28.05
2018-03-02T06:36:31.224Z,28.67
2018-03-02T06:38:57.788Z,27.25
2018-03-02T06:44:26.368Z,26.77
2018-03-02T06:46:55.518Z,30.23
2018-03-02T06:49:22.216Z,27.87
2018-03-02T06:51:48.824Z,24.98
2018-03-02T06:54:15.441Z,29.98
2018-03-02T06:56:42.765Z,28.52
2018-03-02T06:59:09.449Z,27.10
2018-03-02T07:01:36.827Z,28.80
2018-03-02T07:04:03.433Z,28.65
2018-03-02T07:06:35.833Z,25.65
2018-03-02T07:09:03.323Z,27.50
2018-03-02T07:11:29.938Z,22.65
2018-03-02T07:13:56.574Z,29.95
2018-03-02T07:16:23.343Z,27.87
2018-03-02T07:19:44.994Z,29.45
2018-03-02T07:22:11.634Z,26.75
2018-03-02T07:24:38.423Z,31.08
2018-03-02T07:27:24.868Z,29.58
2018-03-02T07:29:51.469Z,26.23
2018-03-02T07:32:18.106Z,26.50
2018-03-02T07:34:47.962Z,30.83
2018-03-02T07:37:15.444Z,24.60
2018-03-02T07:39:42.270Z,23.65
2018-03-02T07:42:08.859Z,29.70
2018-03-02T07:44:35.481Z,24.33
2018-03-02T07:47:02.130Z,25.42
2018-03-02T07:49:28.769Z,29.80
2018-03-02T07:52:17.282Z,26.25
2018-03-02T07:57:43.813Z,16.73
2018-03-02T08:02:57.688Z,26.90
2018-03-02T08:05:26.231Z,28.80
2018-03-02T08:07:52.930Z,27.60
2018-03-02T08:10:48.109Z,29.80
2018-03-02T08:13:14.719Z,25.35
2018-03-02T08:15:56.930Z,29.25
2018-03-02T08:18:53.185Z,26.92
2018-03-02T08:21:19.800Z,25.45
2018-03-02T08:23:46.420Z,33.60
2018-03-02T08:26:13.064Z,27.45
2018-03-02T08:28:49.118Z,30.37
2018-03-02T08:33:49.913Z,29.45
2018-03-02T08:36:18.586Z,29.50
2018-03-02T08:38:45.177Z,30.15
2018-03-02T08:41:18.210Z,29.40
2018-03-02T08:43:44.823Z,29.35
2018-03-02T08:46:18.562Z,28.52
2018-03-02T08:48:45.221Z,28.30
2018-03-02T08:51:11.845Z,32.28
2018-03-02T08:53:39.350Z,28.42
2018-03-02T08:56:05.971Z,30.98
2018-03-02T08:58:32.737Z,30.83
2018-03-02T09:00:59.372Z,33.40
2018-03-02T09:03:25.948Z,30.25
2018-03-02T09:05:52.532Z,27.75
2018-03-02T09:08:19.150Z,25.73
2018-03-02T09:10:45.806Z,29.55
2018-03-02T09:13:12.376Z,27.25
2018-03-02T09:15:39.368Z,36.70
2018-03-02T09:18:05.980Z,31.35
2018-03-02T09:20:32.604Z,29.42
2018-03-02T09:22:59.355Z,32.13
2018-03-02T09:25:26.238Z,30.35
2018-03-02T09:27:52.846Z,30.70
2018-03-02T09:30:19.576Z,33.22
2018-03-02T09:32:46.151Z,29.15
2018-03-02T09:35:12.755Z,30.90
2018-03-02T09:37:40.064Z,28.45
2018-03-02T09:40:06.685Z,29.67
2018-03-02T09:42:33.998Z,31.00
2018-03-02T09:45:00.866Z,31.67
2018-03-02T09:47:27.493Z,29.92
2018-03-02T09:49:54.085Z,30.52
2018-03-02T09:52:20.709Z,28.55
2018-03-02T09:54:47.451Z,29.15
2018-03-02T09:57:14.070Z,28.80
2018-03-02T09:59:40.663Z,32.67
2018-03-02T10:02:07.435Z,31.60
2018-03-02T10:04:34.062Z,32.13
2018-03-02T10:07:00.616Z,28.95
2018-03-02T10:09:27.242Z,32.33
2018-03-02T10:11:53.801Z,29.10
2018-03-02T10:14:20.536Z,28.73
2018-03-02T10:16:47.116Z,33.30
2018-03-02T10:19:13.684Z,32.95
2018-03-02T10:21:40.369Z,31.73
2018-03-02T10:24:07.031Z,29.05
2018-03-02T10:26:33.687Z,31.33
2018-03-02T10:29:00.342Z,31.45
2018-03-02T10:31:28.347Z,25.85
2018-03-02T10:34:12.030Z,31.08
2018-03-02T10:36:38.633Z,29.92
2018-03-02T10:39:14.023Z,30.73
2018-03-02T10:41:40.676Z,29.83
2018-03-02T10:44:07.301Z,27.85
2018-03-02T10:46:33.998Z,29.35
2018-03-02T10:49:00.860Z,31.62
2018-03-02T10:51:41.461Z,30.37
2018-03-02T10:54:08.253Z,29.37
2018-03-02T10:56:34.971Z,28.95
2018-03-02T10:59:08.988Z,30.60
2018-03-02T11:01:43.597Z,28.45
2018-03-02T11:04:10.301Z,30.80
2018-03-02T11:06:38.039Z,27.33
2018-03-02T11:09:12.475Z,32.50
2018-03-02T11:11:42.776Z,29.10
2018-03-02T11:14:41.300Z,30.55
2018-03-02T11:17:09.008Z,29.67
2018-03-02T11:19:35.712Z,31.65
2018-03-02T11:22:02.359Z,31.10
2018-03-02T11:24:28.918Z,30.50
2018-03-02T11:27:04.026Z,27.80
2018-03-02T11:29:44.329Z,30.33
2018-03-02T12:05:38.263Z,27.90
2018-03-02T12:08:04.861Z,30.62
2018-03-02T12:10:31.437Z,31.25
2018-03-02T12:13:16.441Z,26.12
2018-03-02T12:15:43.270Z,30.15
2018-03-02T12:18:10.053Z,31.50
2018-03-02T12:30:28.734Z,29.98
2018-03-02T12:32:55.349Z,29.17
2018-03-02T12:38:41.832Z,32.20
2018-03-02T12:41:08.414Z,30.58
2018-03-02T12:43:35.113Z,31.05
2018-03-02T12:52:18.535Z,30.92
2018-03-02T12:58:06.641Z,29.98
2018-03-02T13:03:48.075Z,31.30
2018-03-02T13:06:14.670Z,29.67
2018-03-02T13:08:41.272Z,32.45
2018-03-02T13:11:31.294Z,30.60
2018-03-02T13:13:57.932Z,32.17
2018-03-02T13:25:24.922Z,30.02
2018-03-02T13:34:10.480Z,30.15
2018-03-02T13:36:58.493Z,29.42
2018-03-02T13:42:35.810Z,29.45
2018-03-02T13:51:35.521Z,31.23
2018-03-02T13:54:02.140Z,28.30
2018-03-02T13:59:25.972Z,29.73
2018-03-02T14:01:53.368Z,29.67
2018-03-02T14:07:21.295Z,30.85
2018-03-02T14:09:47.872Z,29.02
2018-03-02T14:15:24.065Z,29.48
2018-03-02T14:17:50.748Z,29.85
2018-03-02T14:23:27.135Z,29.77
2018-03-02T14:32:41.524Z,28.92
2018-03-02T14:35:14.585Z,29.75
2018-03-02T14:38:09.523Z,30.50
2018-03-02T14:40:36.218Z,28.50
2018-03-02T14:43:23.699Z,29.05
2018-03-02T14:45:50.759Z,29.27
2018-03-02T14:48:17.544Z,30.37
2018-03-02T14:50:48.161Z,32.00
2018-03-02T14:59:34.579Z,28.05
2018-03-02T15:05:01.435Z,28.60
2018-03-02T15:10:37.454Z,27.75
2018-03-02T15:13:09.716Z,31.05
2018-03-02T15:15:36.284Z,27.77
2018-03-02T15:18:02.896Z,28.87
2018-03-02T15:23:42.578Z,29.12
2018-03-02T15:26:09.202Z,28.85
2018-03-02T15:28:35.807Z,28.23
2018-03-02T15:34:23.056Z,29.20
2018-03-02T15:40:26.793Z,30.77
2018-03-02T15:42:53.419Z,30.10
2018-03-02T15:45:20.148Z,28.95
2018-03-02T15:47:46.858Z,27.85
2018-03-02T15:50:15.545Z,29.02
2018-03-02T15:52:44.041Z,29.45
2018-03-02T15:55:12.827Z,25.05
2018-03-02T15:57:39.466Z,27.40
2018-03-02T16:00:06.835Z,26.67
2018-03-02T16:02:34.235Z,28.25
2018-03-02T16:05:00.859Z,29.23
2018-03-02T16:07:50.211Z,28.95
2018-03-02T16:10:17.548Z,29.20
2018-03-02T16:12:44.169Z,28.70
2018-03-02T16:15:10.732Z,30.05
2018-03-02T16:17:37.354Z,28.62
2018-03-02T16:20:04.732Z,30.40
2018-03-02T16:22:32.062Z,31.33
2018-03-02T16:24:58.919Z,29.55
2018-03-02T16:27:39.968Z,31.62
2018-03-02T16:30:09.519Z,32.80
2018-03-02T16:32:37.123Z,29.23
2018-03-02T16:35:04.452Z,32.90
2018-03-02T16:37:32.043Z,31.83
2018-03-02T16:40:00.492Z,31.05
2018-03-02T16:42:27.279Z,31.60
2018-03-02T16:44:53.916Z,31.60
2018-03-02T16:47:20.602Z,32.63
2018-03-02T16:49:47.254Z,30.20
2018-03-02T16:52:31.803Z,31.90
2018-03-02T16:54:58.414Z,33.15
2018-03-02T16:57:25.250Z,32.95
2018-03-02T16:59:51.892Z,35.63
2018-03-02T17:02:19.249Z,31.85
2018-03-02T17:04:45.921Z,32.95
2018-03-02T17:07:12.565Z,34.05
2018-03-02T17:09:46.591Z,31.95
2018-03-02T17:12:24.399Z,32.38
2018-03-02T17:15:13.697Z,33.22
2018-03-02T17:17:46.324Z,31.25
2018-03-02T17:20:15.554Z,34.10
2018-03-02T17:22:43.826Z,36.63
2018-03-02T17:25:11.692Z,33.92
2018-03-02T17:27:39.931Z,34.45
2018-03-02T17:30:14.546Z,35.92
2018-03-02T17:32:45.556Z,34.42
2018-03-02T17:35:16.621Z,33.78
2018-03-02T17:37:44.388Z,34.17
2018-03-02T17:40:12.086Z,33.13
2018-03-02T17:42:39.390Z,35.17
2018-03-02T17:45:06.369Z,38.17
2018-03-02T17:47:34.506Z,35.42
2018-03-02T17:50:01.508Z,35.58
2018-03-02T17:52:29.676Z,34.38
2018-03-02T17:54:57.208Z,35.80
2018-03-02T17:57:24.794Z,36.42
2018-03-02T17:59:51.771Z,34.85
2018-03-02T18:02:19.489Z,35.85
2018-03-02T18:04:56.996Z,37.15
2018-03-02T18:07:26.045Z,36.53
2018-03-02T18:09:53.118Z,38.63
2018-03-02T18:12:31.558Z,37.97
2018-03-02T18:15:02.462Z,38.67
2018-03-02T18:17:32.728Z,35.92
2018-03-02T18:20:00.651Z,37.45
2018-03-02T18:22:29.083Z,36.38
2018-03-02T18:24:55.804Z,39.50
2018-03-02T18:27:26.423Z,38.20
2018-03-02T18:29:53.123Z,39.70
2018-03-02T18:32:20.650Z,35.72
2018-03-02T18:34:48.114Z,36.75
2018-03-02T18:37:14.866Z,36.70
2018-03-02T18:39:41.556Z,36.58
2018-03-02T18:42:08.282Z,37.10
2018-03-02T18:44:36.079Z,36.78
2018-03-02T18:47:03.706Z,41.13
2018-03-02T18:49:30.352Z,39.92
2018-03-02T18:51:56.979Z,39.63
2018-03-02T18:54:23.700Z,39.17
2018-03-02T18:56:50.690Z,38.78
2018-03-02T18:59:20.879Z,38.10
2018-03-02T19:01:53.342Z,39.15
2018-03-02T19:04:19.986Z,38.60
2018-03-02T19:06:46.564Z,40.20
2018-03-02T19:09:13.582Z,38.55
2018-03-02T19:11:40.192Z,37.53
2018-03-02T19:14:06.995Z,41.03
2018-03-02T19:16:33.558Z,38.88
2018-03-02T19:19:00.140Z,37.90
2018-03-02T19:21:26.734Z,36.65
2018-03-02T19:23:53.366Z,37.63
2018-03-02T19:26:19.998Z,38.03
2018-03-02T19:28:46.576Z,34.60
2018-03-02T19:31:13.337Z,37.35
2018-03-02T19:33:39.936Z,40.45
2018-03-02T19:36:07.887Z,39.75
2018-03-02T19:38:35.423Z,37.15
2018-03-02T19:41:10.431Z,37.20
2018-03-02T19:43:40.018Z,38.42
2018-03-02T19:46:09.062Z,41.00
2018-03-02T19:48:38.127Z,38.17
2018-03-02T19:51:06.890Z,38.63
2018-03-02T19:53:35.118Z,35.20
2018-03-02T19:56:05.453Z,39.67
2018-03-02T19:58:33.114Z,37.97
2018-03-02T20:01:01.329Z,36.40
2018-03-02T20:03:30.632Z,38.80
2018-03-02T20:09:03.195Z,38.53
2018-03-02T20:11:31.350Z,38.88
2018-03-02T20:13:59.658Z,39.28
2018-03-02T20:16:35.806Z,38.08
2018-03-02T20:19:04.278Z,37.90
2018-03-02T20:21:32.401Z,38.17
2018-03-02T20:24:12.613Z,39.17
2018-03-02T20:26:50.806Z,39.08
2018-03-02T20:29:18.503Z,38.83
2018-03-02T20:31:45.719Z,39.42
2018-03-02T20:34:20.157Z,37.95
2018-03-02T20:36:48.149Z,39.50
2018-03-02T20:39:16.841Z,37.70
2018-03-02T20:41:46.718Z,40.83
2018-03-02T20:58:19.504Z,45.17
2018-03-02T21:00:47.105Z,42.30
2018-03-02T21:03:15.260Z,42.03
2018-03-02T21:05:45.313Z,41.10
2018-03-02T21:08:12.097Z,40.50
2018-03-02T21:10:42.392Z,40.47
2018-03-02T21:13:17.344Z,41.22
2018-03-02T21:15:44.081Z,41.28
2018-03-02T21:18:10.837Z,42.45
2018-03-02T21:20:37.442Z,40.80
2018-03-02T21:23:04.088Z,39.47
2018-03-02T21:25:30.913Z,42.28
2018-03-02T21:27:58.257Z,38.50
2018-03-02T21:30:28.614Z,39.78
2018-03-02T21:33:00.418Z,35.33
2018-03-02T21:35:27.999Z,38.17
2018-03-02T21:38:01.803Z,42.70
2018-03-02T21:40:28.699Z,38.75
2018-03-02T21:42:55.385Z,36.38
2018-03-02T21:45:22.158Z,37.03
2018-03-02T21:47:49.903Z,37.50
2018-03-02T21:50:20.592Z,37.17
2018-03-02T21:52:49.544Z,35.08
2018-03-02T21:55:25.902Z,39.45
2018-03-02T21:57:53.366Z,37.60
2018-03-02T22:00:20.118Z,39.30
2018-03-02T22:02:51.926Z,36.00
2018-03-02T22:05:18.721Z,38.67
2018-03-02T22:07:45.913Z,37.97
2018-03-02T22:10:12.932Z,37.40
2018-03-02T22:12:40.702Z,38.22
2018-03-02T22:15:07.384Z,38.67
2018-03-02T22:17:34.833Z,37.75
2018-03-02T22:20:02.479Z,36.15
2018-03-02T22:22:29.157Z,37.47
2018-03-02T22:24:56.022Z,39.30
2018-03-02T22:27:22.855Z,36.22
2018-03-02T22:29:49.506Z,38.05
2018-03-02T22:32:16.208Z,39.08
2018-03-02T22:34:43.156Z,37.70
2018-03-02T22:37:12.185Z,37.95
2018-03-02T22:39:38.912Z,38.00
2018-03-02T22:42:07.528Z,41.30
2018-03-02T22:44:34.196Z,37.92
2018-03-02T22:47:05.321Z,38.97
2018-03-02T22:49:31.902Z,39.75
2018-03-02T22:51:58.503Z,39.60
2018-03-02T22:54:25.295Z,40.00
2018-03-02T22:56:52.679Z,39.08
2018-03-02T22:59:19.480Z,39.30
2018-03-02T23:01:46.242Z,41.70
2018-03-02T23:04:25.439Z,41.28
2018-03-02T23:06:52.065Z,42.33
2018-03-02T23:09:18.713Z,42.92
2018-03-02T23:11:45.341Z,42.38
2018-03-02T23:14:11.966Z,41.25
2018-03-02T23:16:38.684Z,43.13
2018-03-02T23:19:05.846Z,42.35
2018-03-02T23:21:32.605Z,45.40
2018-03-02T23:23:59.638Z,42.10
2018-03-02T23:26:27.125Z,44.45
2018-03-02T23:28:53.798Z,45.00
2018-03-02T23:31:20.892Z,43.58
2018-03-02T23:33:47.648Z,43.28
2018-03-02T23:36:14.774Z,44.45
2018-03-02T23:38:42.478Z,44.65
2018-03-02T23:41:09.150Z,46.45
2018-03-02T23:43:36.213Z,47.50
2018-03-02T23:46:36.641Z,44.47
2018-03-02T23:49:05.935Z,45.25
2018-03-02T23:51:53.193Z,45.80
2018-03-02T23:54:26.806Z,45.58
2018-03-02T23:57:00.519Z,44.97
2018-03-02T23:59:32.276Z,46.97
